createdAt,value
2019-02-25T00:00:41.273Z,23.80
2019-02-25T00:01:41.619Z,23.00
2019-02-25T00:02:41.793Z,22.70
2019-02-25T00:03:42.038Z,23.70
2019-02-25T00:04:42.292Z,23.00
2019-02-25T00:05:42.540Z,24.90
2019-02-25T00:06:42.801Z,22.80
2019-02-25T00:07:43.052Z,25.90
2019-02-25T00:08:43.347Z,24.10
2019-02-25T00:09:43.713Z,23.50
2019-02-25T00:10:43.813Z,21.30
2019-02-25T00:11:44.079Z,24.00
2019-02-25T00:12:44.351Z,51.60
2019-02-25T00:13:44.605Z,52.60
2019-02-25T00:14:44.837Z,38.60
2019-02-25T00:15:45.087Z,25.80
2019-02-25T00:16:45.590Z,24.80
2019-02-25T00:17:45.681Z,26.60
2019-02-25T00:18:45.868Z,25.40
2019-02-25T00:19:46.105Z,26.50
2019-02-25T00:20:46.355Z,27.60
2019-02-25T00:21:46.646Z,25.70
2019-02-25T00:22:46.851Z,29.10
2019-02-25T00:23:47.134Z,24.70
2019-02-25T00:24:47.370Z,25.80
2019-02-25T00:25:47.697Z,22.70
2019-02-25T00:26:47.884Z,27.60
2019-02-25T00:27:48.114Z,26.70
2019-02-25T00:28:48.362Z,24.00
2019-02-25T00:29:48.632Z,24.60
2019-02-25T00:30:48.882Z,25.40
2019-02-25T00:31:49.156Z,25.90
2019-02-25T00:32:49.400Z,25.80
2019-02-25T00:33:49.675Z,25.50
2019-02-25T00:34:49.883Z,24.20
2019-02-25T00:35:50.163Z,24.90
2019-02-25T00:36:50.431Z,27.00
2019-02-25T00:37:50.677Z,26.40
2019-02-25T00:38:50.925Z,24.70
2019-02-25T00:39:51.196Z,24.60
2019-02-25T00:40:51.435Z,27.90
2019-02-25T00:41:51.782Z,23.60
2019-02-25T00:42:52.007Z,23.50
2019-02-25T00:43:52.208Z,26.50
2019-02-25T00:44:52.476Z,30.70
2019-02-25T00:45:52.696Z,23.40
2019-02-25T00:46:52.985Z,26.20
2019-02-25T00:47:53.241Z,25.60
2019-02-25T00:48:53.475Z,21.80
2019-02-25T00:49:53.756Z,25.40
2019-02-25T00:50:54.098Z,26.40
2019-02-25T00:51:54.249Z,27.90
2019-02-25T00:52:54.488Z,24.10
2019-02-25T00:53:54.738Z,24.80
2019-02-25T00:54:55.003Z,24.80
2019-02-25T00:55:55.224Z,27.10
2019-02-25T00:56:55.516Z,21.80
2019-02-25T00:57:55.777Z,23.20
2019-02-25T00:58:56.144Z,24.30
2019-02-25T00:59:56.283Z,24.70
2019-02-25T01:00:56.508Z,26.20
2019-02-25T01:01:56.784Z,23.00
2019-02-25T01:02:57.051Z,24.30
2019-02-25T01:03:57.299Z,27.20
2019-02-25T01:04:57.569Z,23.10
2019-02-25T01:05:57.802Z,24.40
2019-02-25T01:06:58.115Z,24.60
2019-02-25T01:07:58.351Z,25.30
2019-02-25T01:08:58.566Z,21.80
2019-02-25T01:09:58.838Z,28.20
2019-02-25T01:10:59.074Z,24.40
2019-02-25T01:11:59.350Z,28.10
2019-02-25T01:12:59.588Z,25.90
2019-02-25T01:13:59.822Z,25.10
2019-02-25T01:15:00.253Z,24.50
2019-02-25T01:16:00.320Z,29.10
2019-02-25T01:17:00.612Z,25.20
2019-02-25T01:18:00.855Z,29.50
2019-02-25T01:19:01.079Z,26.50
2019-02-25T01:20:01.374Z,26.00
2019-02-25T01:21:01.624Z,29.30
2019-02-25T01:22:01.906Z,29.50
2019-02-25T01:23:02.158Z,29.50
2019-02-25T01:24:02.452Z,30.80
2019-02-25T01:25:02.656Z,30.30
2019-02-25T01:26:02.888Z,32.20
2019-02-25T01:27:03.162Z,30.30
2019-02-25T01:28:03.404Z,33.00
2019-02-25T01:29:03.650Z,31.70
2019-02-25T01:30:03.907Z,32.00
2019-02-25T01:31:04.154Z,32.90
2019-02-25T01:32:04.553Z,32.00
2019-02-25T01:33:04.682Z,31.90
2019-02-25T01:34:04.915Z,31.20
2019-02-25T01:35:05.174Z,31.70
2019-02-25T01:36:05.425Z,30.40
2019-02-25T01:37:05.682Z,31.90
2019-02-25T01:38:05.967Z,33.10
2019-02-25T01:39:06.213Z,30.30
2019-02-25T01:40:06.563Z,30.70
2019-02-25T01:41:06.702Z,32.40
2019-02-25T01:42:06.977Z,33.40
2019-02-25T01:43:07.270Z,31.00
2019-02-25T01:44:07.508Z,31.00
2019-02-25T01:45:07.774Z,26.60
2019-02-25T01:46:07.996Z,28.40
2019-02-25T01:47:08.269Z,29.60
2019-02-25T01:48:08.826Z,28.50
2019-02-25T01:49:08.761Z,26.90
2019-02-25T01:50:09.046Z,30.60
2019-02-25T01:51:09.265Z,25.20
2019-02-25T01:52:09.504Z,28.90
2019-02-25T01:53:09.802Z,28.60
2019-02-25T01:54:10.291Z,27.70
2019-02-25T01:55:10.321Z,29.90
2019-02-25T01:56:10.594Z,29.90
2019-02-25T01:57:10.800Z,28.90
2019-02-25T01:58:11.081Z,27.30
2019-02-25T01:59:11.318Z,31.40
2019-02-25T02:00:11.605Z,30.10
2019-02-25T02:01:11.840Z,29.70
2019-02-25T02:02:12.095Z,32.30
2019-02-25T02:03:12.386Z,29.40
2019-02-25T02:04:12.616Z,30.10
2019-02-25T02:05:12.933Z,31.30
2019-02-25T02:06:13.111Z,30.10
2019-02-25T02:07:13.356Z,28.60
2019-02-25T02:08:13.634Z,31.50
2019-02-25T02:09:13.845Z,30.40
2019-02-25T02:10:14.142Z,32.30
2019-02-25T02:11:14.382Z,26.00
2019-02-25T02:12:14.640Z,26.00
2019-02-25T02:13:15.063Z,28.50
2019-02-25T02:14:15.129Z,27.30
2019-02-25T02:15:15.409Z,30.10
2019-02-25T02:16:15.661Z,27.40
2019-02-25T02:17:15.919Z,30.10
2019-02-25T02:18:16.218Z,27.40
2019-02-25T02:19:16.431Z,29.20
2019-02-25T02:20:16.696Z,29.80
2019-02-25T02:21:16.998Z,27.40
2019-02-25T02:22:17.184Z,27.20
2019-02-25T02:23:17.462Z,29.30
2019-02-25T02:24:17.684Z,24.90
2019-02-25T02:25:17.957Z,29.70
2019-02-25T02:26:18.186Z,26.20
2019-02-25T02:27:18.447Z,24.40
2019-02-25T02:28:18.739Z,25.30
2019-02-25T02:29:18.995Z,24.70
2019-02-25T02:30:19.199Z,25.40
2019-02-25T02:31:19.441Z,25.90
2019-02-25T02:32:19.679Z,26.70
2019-02-25T02:33:20.005Z,24.00
2019-02-25T02:34:20.200Z,23.90
2019-02-25T02:35:20.464Z,23.10
2019-02-25T02:36:20.701Z,23.90
2019-02-25T02:37:21.003Z,25.40
2019-02-25T02:38:21.269Z,23.40
2019-02-25T02:39:21.469Z,25.80
2019-02-25T02:40:21.743Z,23.80
2019-02-25T02:41:21.971Z,23.90
2019-02-25T02:42:22.223Z,25.30
2019-02-25T02:43:22.519Z,26.20
2019-02-25T02:44:22.714Z,23.20
2019-02-25T02:45:23.022Z,26.70
2019-02-25T02:46:23.379Z,23.50
2019-02-25T02:47:23.496Z,23.10
2019-02-25T02:48:23.774Z,24.40
2019-02-25T02:49:23.985Z,24.80
2019-02-25T02:50:24.256Z,23.20
2019-02-25T02:51:24.508Z,24.00
2019-02-25T02:52:24.764Z,23.40
2019-02-25T02:53:25.057Z,23.60
2019-02-25T02:54:25.418Z,23.10
2019-02-25T02:55:25.524Z,25.20
2019-02-25T02:56:25.788Z,23.60
2019-02-25T02:57:26.048Z,25.40
2019-02-25T02:58:26.318Z,21.80
2019-02-25T02:59:26.552Z,22.70
2019-02-25T03:00:26.812Z,26.20
2019-02-25T03:01:27.095Z,27.70
2019-02-25T03:02:27.382Z,23.40
2019-02-25T03:03:27.584Z,26.50
2019-02-25T03:04:27.852Z,25.70
2019-02-25T03:05:28.065Z,28.00
2019-02-25T03:06:28.346Z,26.20
2019-02-25T03:07:28.583Z,22.30
2019-02-25T03:08:28.853Z,23.70
2019-02-25T03:09:29.102Z,21.60
2019-02-25T03:10:29.391Z,23.30
2019-02-25T03:11:29.590Z,25.50
2019-02-25T03:12:29.839Z,21.30
2019-02-25T03:13:30.110Z,23.00
2019-02-25T03:14:30.347Z,22.50
2019-02-25T03:15:30.592Z,25.30
2019-02-25T03:16:30.871Z,24.20
2019-02-25T03:17:31.099Z,27.30
2019-02-25T03:18:31.409Z,25.80
2019-02-25T03:19:31.672Z,26.10
2019-02-25T03:20:31.870Z,26.00
2019-02-25T03:21:32.142Z,24.10
2019-02-25T03:22:32.359Z,26.00
2019-02-25T03:23:32.647Z,25.30
2019-02-25T03:24:32.899Z,29.20
2019-02-25T03:25:33.150Z,23.30
2019-02-25T03:26:33.446Z,27.40
2019-02-25T03:27:33.754Z,21.90
2019-02-25T03:28:33.931Z,23.20
2019-02-25T03:29:34.181Z,25.50
2019-02-25T03:30:34.417Z,25.30
2019-02-25T03:31:34.691Z,25.80
2019-02-25T03:32:34.925Z,23.80
2019-02-25T03:33:35.428Z,25.40
2019-02-25T03:34:35.434Z,24.50
2019-02-25T03:35:35.771Z,25.00
2019-02-25T03:36:35.949Z,26.40
2019-02-25T03:37:36.185Z,24.70
2019-02-25T03:38:36.451Z,26.70
2019-02-25T03:39:36.701Z,23.30
2019-02-25T03:40:36.970Z,20.90
2019-02-25T03:41:37.239Z,23.40
2019-02-25T03:42:37.476Z,26.30
2019-02-25T03:43:37.819Z,27.90
2019-02-25T03:44:37.958Z,26.30
2019-02-25T03:45:38.229Z,24.40
2019-02-25T03:46:38.493Z,22.60
2019-02-25T03:47:38.732Z,25.20
2019-02-25T03:48:39.000Z,23.20
2019-02-25T03:49:39.244Z,25.20
2019-02-25T03:50:39.550Z,23.50
2019-02-25T03:51:39.810Z,25.20
2019-02-25T03:52:39.979Z,23.60
2019-02-25T03:53:40.247Z,23.80
2019-02-25T03:54:40.497Z,24.10
2019-02-25T03:55:40.744Z,23.40
2019-02-25T03:56:41.016Z,24.70
2019-02-25T03:57:41.257Z,25.00
2019-02-25T03:58:41.510Z,26.30
2019-02-25T03:59:41.837Z,25.20
2019-02-25T04:00:42.088Z,24.50
2019-02-25T04:01:42.293Z,25.70
2019-02-25T04:02:42.540Z,30.10
2019-02-25T04:03:42.813Z,23.60
2019-02-25T04:04:43.093Z,24.30
2019-02-25T04:05:43.334Z,32.10
2019-02-25T04:06:43.605Z,35.30
2019-02-25T04:07:43.831Z,41.00
2019-02-25T04:08:44.164Z,34.90
2019-02-25T04:09:44.398Z,34.30
2019-02-25T04:10:44.622Z,30.60
2019-02-25T04:11:44.897Z,30.10
2019-02-25T04:12:45.130Z,28.70
2019-02-25T04:13:45.380Z,27.50
2019-02-25T04:14:45.653Z,28.70
2019-02-25T04:15:45.884Z,29.60
2019-02-25T04:16:46.311Z,25.20
2019-02-25T04:17:46.385Z,28.90
2019-02-25T04:18:46.649Z,26.00
2019-02-25T04:19:46.927Z,24.70
2019-02-25T04:20:47.155Z,26.10
2019-02-25T04:21:47.412Z,25.80
2019-02-25T04:22:47.656Z,25.00
2019-02-25T04:23:47.901Z,25.80
2019-02-25T04:24:48.247Z,22.90
2019-02-25T04:25:48.398Z,24.50
2019-02-25T04:26:48.692Z,24.80
2019-02-25T04:27:48.914Z,26.70
2019-02-25T04:28:49.150Z,26.20
2019-02-25T04:29:49.430Z,28.00
2019-02-25T04:30:49.670Z,27.20
2019-02-25T04:31:49.944Z,22.90
2019-02-25T04:32:50.237Z,25.70
2019-02-25T04:33:50.419Z,23.00
2019-02-25T04:34:50.680Z,28.40
2019-02-25T04:35:50.914Z,25.80
2019-02-25T04:36:51.197Z,22.70
2019-02-25T04:37:51.438Z,26.90
2019-02-25T04:38:51.689Z,24.40
2019-02-25T04:39:51.980Z,28.70
2019-02-25T04:40:52.206Z,27.50
2019-02-25T04:41:52.513Z,25.70
2019-02-25T04:42:52.699Z,27.10
2019-02-25T04:43:52.945Z,24.00
2019-02-25T04:44:53.245Z,29.40
2019-02-25T04:45:53.457Z,26.50
2019-02-25T04:46:53.714Z,26.40
2019-02-25T04:47:53.965Z,28.80
2019-02-25T04:48:54.232Z,27.30
2019-02-25T04:49:54.612Z,23.50
2019-02-25T04:50:54.709Z,24.70
2019-02-25T04:51:54.995Z,29.80
2019-02-25T04:52:55.245Z,27.30
2019-02-25T04:53:55.499Z,25.10
2019-02-25T04:54:55.772Z,25.70
2019-02-25T04:55:56.002Z,26.60
2019-02-25T04:56:56.245Z,25.20
2019-02-25T04:57:56.635Z,25.70
2019-02-25T04:58:56.761Z,23.90
2019-02-25T04:59:57.045Z,24.70
2019-02-25T05:00:57.271Z,24.40
2019-02-25T05:01:57.495Z,30.70
2019-02-25T05:02:57.789Z,24.90
2019-02-25T05:03:58.055Z,28.50
2019-02-25T05:04:58.331Z,28.60
2019-02-25T05:05:58.601Z,29.90
2019-02-25T05:06:58.799Z,28.10
2019-02-25T05:07:59.056Z,33.40
2019-02-25T05:08:59.330Z,29.00
2019-02-25T05:09:59.611Z,30.30
2019-02-25T05:10:59.841Z,30.20
2019-02-25T05:12:00.084Z,30.60
2019-02-25T05:13:00.576Z,30.20
2019-02-25T05:14:00.634Z,27.10
2019-02-25T05:15:00.849Z,28.30
2019-02-25T05:16:01.085Z,27.20
2019-02-25T05:17:01.338Z,25.60
2019-02-25T05:18:01.607Z,27.10
2019-02-25T05:19:01.843Z,27.60
2019-02-25T05:20:02.133Z,28.10
2019-02-25T05:21:02.359Z,27.00
2019-02-25T05:22:02.645Z,29.60
2019-02-25T05:23:02.963Z,25.90
2019-02-25T05:24:03.134Z,28.60
2019-02-25T05:25:03.399Z,34.30
2019-02-25T05:26:03.642Z,29.40
2019-02-25T05:27:03.895Z,28.30
2019-02-25T05:28:04.168Z,24.90
2019-02-25T05:29:04.402Z,29.30
2019-02-25T05:30:04.693Z,37.80
2019-02-25T05:31:05.043Z,29.00
2019-02-25T05:32:05.160Z,27.80
2019-02-25T05:33:05.452Z,30.20
2019-02-25T05:34:05.662Z,28.80
2019-02-25T05:35:05.950Z,28.30
2019-02-25T05:36:06.152Z,31.10
2019-02-25T05:37:06.440Z,25.20
2019-02-25T05:38:06.725Z,28.10
2019-02-25T05:39:07.037Z,24.80
2019-02-25T05:40:07.214Z,28.80
2019-02-25T05:41:07.423Z,33.10
2019-02-25T05:42:07.701Z,29.10
2019-02-25T05:43:07.967Z,32.60
2019-02-25T05:44:08.567Z,32.10
2019-02-25T05:45:08.479Z,31.80
2019-02-25T05:46:08.706Z,28.10
2019-02-25T05:47:09.000Z,29.60
2019-02-25T05:48:09.220Z,25.60
2019-02-25T05:49:09.453Z,28.50
2019-02-25T05:50:09.736Z,27.90
2019-02-25T05:51:09.959Z,29.50
2019-02-25T05:52:10.217Z,28.40
2019-02-25T05:53:10.460Z,30.10
2019-02-25T05:54:10.705Z,28.10
2019-02-25T05:55:11.050Z,30.70
2019-02-25T05:56:11.201Z,31.40
2019-02-25T05:57:11.466Z,33.70
2019-02-25T05:58:11.748Z,32.40
2019-02-25T05:59:11.978Z,31.70
2019-02-25T06:00:12.256Z,29.40
2019-02-25T06:01:12.486Z,32.30
2019-02-25T06:02:12.732Z,29.10
2019-02-25T06:03:13.045Z,28.50
2019-02-25T06:04:13.343Z,24.20
2019-02-25T06:05:13.514Z,30.10
2019-02-25T06:06:13.770Z,31.10
2019-02-25T06:07:14.007Z,29.90
2019-02-25T06:08:14.276Z,32.00
2019-02-25T06:09:14.514Z,30.90
2019-02-25T06:10:14.752Z,31.40
2019-02-25T06:11:15.061Z,30.00
2019-02-25T06:12:15.410Z,29.90
2019-02-25T06:13:15.583Z,29.90
2019-02-25T06:14:15.806Z,32.30
2019-02-25T06:15:16.047Z,32.80
2019-02-25T06:16:16.348Z,33.10
2019-02-25T06:17:16.575Z,32.50
2019-02-25T06:18:16.860Z,32.40
2019-02-25T06:19:17.090Z,34.90
2019-02-25T06:20:17.457Z,33.20
2019-02-25T06:21:17.604Z,35.30
2019-02-25T06:22:17.831Z,32.20
2019-02-25T06:23:18.106Z,35.20
2019-02-25T06:24:18.354Z,34.00
2019-02-25T06:25:18.609Z,34.80
2019-02-25T06:26:18.860Z,34.40
2019-02-25T06:27:19.102Z,39.00
2019-02-25T06:28:19.444Z,35.10
2019-02-25T06:29:19.609Z,34.70
2019-02-25T06:30:19.880Z,38.00
2019-02-25T06:31:20.172Z,37.60
2019-02-25T06:32:20.358Z,39.30
2019-02-25T06:33:20.647Z,35.20
2019-02-25T06:34:20.881Z,36.50
2019-02-25T06:35:21.143Z,35.10
2019-02-25T06:36:21.466Z,40.50
2019-02-25T06:37:21.625Z,38.30
2019-02-25T06:38:21.879Z,38.00
2019-02-25T06:39:22.137Z,35.70
2019-02-25T06:40:22.469Z,31.10
2019-02-25T06:41:22.659Z,37.50
2019-02-25T06:42:22.899Z,33.10
2019-02-25T06:43:23.169Z,33.60
2019-02-25T06:44:23.421Z,30.60
2019-02-25T06:45:23.737Z,37.30
2019-02-25T06:46:23.949Z,41.00
2019-02-25T06:47:24.168Z,40.20
2019-02-25T06:48:24.435Z,35.80
2019-02-25T06:49:24.654Z,36.80
2019-02-25T06:50:24.927Z,36.80
2019-02-25T06:51:25.199Z,32.90
2019-02-25T06:52:25.659Z,47.10
2019-02-25T06:53:25.822Z,42.70
2019-02-25T06:54:25.920Z,40.50
2019-02-25T06:55:26.199Z,41.00
2019-02-25T06:56:26.472Z,38.00
2019-02-25T06:57:26.687Z,41.50
2019-02-25T06:58:26.970Z,43.00
2019-02-25T06:59:27.208Z,42.80
2019-02-25T07:00:27.444Z,41.10
2019-02-25T07:01:27.866Z,42.00
2019-02-25T07:02:27.953Z,31.80
2019-02-25T07:03:28.231Z,35.10
2019-02-25T07:04:28.465Z,36.70
2019-02-25T07:05:28.703Z,37.40
2019-02-25T07:06:29.006Z,37.90
2019-02-25T07:07:29.242Z,38.10
2019-02-25T07:08:29.494Z,31.70
2019-02-25T07:09:29.842Z,32.50
2019-02-25T07:10:29.985Z,29.40
2019-02-25T07:11:30.254Z,31.60
2019-02-25T07:12:30.480Z,30.30
2019-02-25T07:13:30.754Z,34.10
2019-02-25T07:14:31.020Z,35.30
2019-02-25T07:15:31.270Z,31.10
2019-02-25T07:16:31.553Z,27.20
2019-02-25T07:17:31.804Z,29.70
2019-02-25T07:18:32.033Z,26.30
2019-02-25T07:19:32.304Z,26.50
2019-02-25T07:20:32.560Z,27.30
2019-02-25T07:21:32.850Z,27.40
2019-02-25T07:22:33.071Z,25.70
2019-02-25T07:23:33.309Z,25.90
2019-02-25T07:24:33.588Z,27.90
2019-02-25T07:25:33.859Z,26.70
2019-02-25T07:26:34.246Z,26.30
2019-02-25T07:27:34.375Z,21.10
2019-02-25T07:28:36.588Z,29.90
2019-02-25T07:29:34.899Z,23.70
2019-02-25T07:30:35.137Z,26.10
2019-02-25T07:31:35.435Z,24.60
2019-02-25T07:32:35.646Z,22.10
2019-02-25T07:33:35.902Z,22.90
2019-02-25T07:34:36.314Z,27.50
2019-02-25T07:35:36.407Z,25.20
2019-02-25T07:36:36.701Z,30.60
2019-02-25T07:37:36.911Z,25.40
2019-02-25T07:38:39.385Z,30.90
2019-02-25T07:39:37.431Z,28.20
2019-02-25T07:40:37.682Z,24.40
2019-02-25T07:41:38.185Z,25.50
2019-02-25T07:42:38.295Z,23.10
2019-02-25T07:43:38.442Z,25.20
2019-02-25T07:44:38.716Z,23.20
2019-02-25T07:45:38.938Z,24.40
2019-02-25T07:46:39.241Z,24.80
2019-02-25T07:47:39.461Z,25.20
2019-02-25T07:48:39.714Z,21.20
2019-02-25T07:49:39.990Z,25.00
2019-02-25T07:50:47.010Z,25.30
2019-02-25T07:51:41.478Z,25.40
2019-02-25T07:52:40.718Z,26.10
2019-02-25T07:53:40.972Z,25.00
2019-02-25T07:54:41.243Z,26.00
2019-02-25T07:55:41.479Z,24.60
2019-02-25T07:56:41.759Z,25.80
2019-02-25T07:57:41.976Z,24.40
2019-02-25T07:58:42.265Z,27.10
2019-02-25T07:59:42.508Z,23.20
2019-02-25T08:00:42.748Z,28.40
2019-02-25T08:01:43.019Z,25.60
2019-02-25T08:02:43.261Z,23.50
2019-02-25T08:03:43.509Z,28.50
2019-02-25T08:04:43.788Z,26.50
2019-02-25T08:05:44.028Z,25.20
2019-02-25T08:06:44.343Z,25.60
2019-02-25T08:07:44.633Z,23.80
2019-02-25T08:08:44.801Z,25.80
2019-02-25T08:09:45.066Z,25.80
2019-02-25T08:10:45.304Z,24.40
2019-02-25T08:11:45.587Z,26.20
2019-02-25T08:12:45.822Z,31.30
2019-02-25T08:13:46.047Z,37.20
2019-02-25T08:14:46.325Z,25.90
2019-02-25T08:15:46.718Z,25.80
2019-02-25T08:16:46.843Z,26.10
2019-02-25T08:17:47.094Z,30.70
2019-02-25T08:18:47.320Z,23.30
2019-02-25T08:19:47.615Z,25.40
2019-02-25T08:20:47.858Z,23.40
2019-02-25T08:21:48.101Z,27.70
2019-02-25T08:22:48.386Z,25.00
2019-02-25T08:23:48.689Z,29.20
2019-02-25T08:24:48.886Z,31.70
2019-02-25T08:25:49.123Z,23.50
2019-02-25T08:26:49.403Z,25.10
2019-02-25T08:27:49.681Z,25.40
2019-02-25T08:28:49.882Z,26.30
2019-02-25T08:29:50.376Z,27.50
2019-02-25T08:30:50.375Z,25.20
2019-02-25T08:31:50.710Z,25.80
2019-02-25T08:32:50.907Z,24.70
2019-02-25T08:33:51.137Z,27.30
2019-02-25T08:34:51.409Z,28.20
2019-02-25T08:35:52.365Z,25.00
2019-02-25T08:36:51.892Z,29.80
2019-02-25T08:37:52.182Z,30.50
2019-02-25T08:38:52.408Z,26.50
2019-02-25T08:39:52.871Z,26.40
2019-02-25T08:40:52.930Z,28.70
2019-02-25T08:41:53.179Z,28.60
2019-02-25T08:42:53.439Z,29.40
2019-02-25T08:43:53.677Z,28.20
2019-02-25T08:44:53.947Z,28.90
2019-02-25T08:45:54.186Z,28.70
2019-02-25T08:46:54.448Z,31.60
2019-02-25T08:47:54.867Z,27.20
2019-02-25T08:48:55.366Z,28.90
2019-02-25T08:49:55.369Z,27.10
2019-02-25T08:50:56.202Z,31.40
2019-02-25T08:51:55.703Z,27.90
2019-02-25T08:52:56.370Z,27.00
2019-02-25T08:53:56.232Z,31.30
2019-02-25T08:54:56.501Z,31.50
2019-02-25T08:55:58.244Z,30.80
2019-02-25T08:56:57.131Z,29.60
2019-02-25T08:57:57.242Z,30.80
2019-02-25T08:58:57.512Z,28.10
2019-02-25T08:59:57.775Z,28.20
2019-02-25T09:00:58.014Z,27.50
2019-02-25T09:01:58.860Z,27.00
2019-02-25T09:02:58.870Z,30.50
2019-02-25T09:03:58.764Z,34.00
2019-02-25T09:04:59.134Z,28.30
2019-02-25T09:05:59.296Z,29.10
2019-02-25T09:06:59.870Z,30.00
2019-02-25T09:07:59.835Z,33.80
2019-02-25T09:09:00.043Z,32.80
2019-02-25T09:10:00.385Z,29.70
2019-02-25T09:11:00.567Z,29.00
2019-02-25T09:12:00.847Z,37.60
2019-02-25T09:13:01.129Z,36.20
2019-02-25T09:14:01.321Z,31.40
2019-02-25T09:15:01.576Z,30.30
2019-02-25T09:16:01.811Z,33.70
2019-02-25T09:17:02.070Z,34.70
2019-02-25T09:18:02.339Z,31.90
2019-02-25T09:19:02.879Z,31.20
2019-02-25T09:20:02.835Z,33.30
2019-02-25T09:21:03.104Z,32.90
2019-02-25T09:22:03.393Z,35.00
2019-02-25T09:23:04.339Z,30.80
2019-02-25T09:24:03.913Z,31.80
2019-02-25T09:25:04.147Z,31.70
2019-02-25T09:26:04.422Z,34.20
2019-02-25T09:27:05.377Z,34.30
2019-02-25T09:28:05.840Z,34.80
2019-02-25T09:29:05.233Z,34.80
2019-02-25T09:30:05.873Z,35.50
2019-02-25T09:31:06.381Z,34.90
2019-02-25T09:32:05.958Z,34.40
2019-02-25T09:33:06.334Z,33.60
2019-02-25T09:34:06.492Z,31.00
2019-02-25T09:35:06.746Z,30.20
2019-02-25T09:36:07.007Z,32.50
2019-02-25T09:37:07.985Z,34.10
2019-02-25T09:38:07.612Z,35.10
2019-02-25T09:39:07.769Z,34.70
2019-02-25T09:40:07.998Z,39.90
2019-02-25T09:41:08.269Z,36.90
2019-02-25T09:42:08.506Z,40.70
2019-02-25T09:43:08.786Z,35.90
2019-02-25T09:44:09.017Z,37.10
2019-02-25T09:45:09.284Z,35.50
2019-02-25T09:46:09.611Z,33.80
2019-02-25T09:47:09.783Z,37.50
2019-02-25T09:48:10.049Z,39.30
2019-02-25T09:49:10.275Z,34.30
2019-02-25T09:50:10.556Z,35.10
2019-02-25T09:51:11.380Z,38.40
2019-02-25T09:52:11.044Z,36.50
2019-02-25T09:53:11.333Z,37.00
2019-02-25T09:54:11.632Z,38.10
2019-02-25T09:55:11.804Z,35.40
2019-02-25T09:56:12.085Z,38.70
2019-02-25T09:57:12.326Z,40.90
2019-02-25T09:58:12.594Z,42.40
2019-02-25T09:59:12.830Z,44.40
2019-02-25T10:00:13.087Z,48.90
2019-02-25T10:01:13.338Z,45.60
2019-02-25T10:02:13.644Z,39.90
2019-02-25T10:03:13.862Z,37.70
2019-02-25T10:04:14.106Z,40.20
2019-02-25T10:05:14.382Z,38.60
2019-02-25T10:06:14.612Z,40.90
2019-02-25T10:07:15.077Z,44.20
2019-02-25T10:08:15.392Z,42.20
2019-02-25T10:09:15.609Z,43.00
2019-02-25T10:10:15.883Z,46.40
2019-02-25T10:11:16.241Z,40.30
2019-02-25T10:12:16.371Z,39.50
2019-02-25T10:13:16.664Z,39.20
2019-02-25T10:14:16.888Z,41.60
2019-02-25T10:15:17.170Z,39.70
2019-02-25T10:16:17.413Z,40.40
2019-02-25T10:17:23.464Z,36.80
2019-02-25T10:18:18.909Z,39.20
2019-02-25T10:19:18.458Z,43.60
2019-02-25T10:20:18.411Z,39.20
2019-02-25T10:21:18.664Z,38.70
2019-02-25T10:22:18.880Z,40.10
2019-02-25T10:23:19.187Z,43.10
2019-02-25T10:24:19.427Z,39.00
2019-02-25T10:25:19.680Z,41.90
2019-02-25T10:26:19.955Z,39.90
2019-02-25T10:27:20.257Z,39.60
2019-02-25T10:28:20.438Z,38.80
2019-02-25T10:29:20.682Z,38.30
2019-02-25T10:30:20.935Z,52.20
2019-02-25T10:31:21.213Z,43.00
2019-02-25T10:32:23.234Z,41.20
2019-02-25T10:33:21.712Z,39.40
2019-02-25T10:34:23.934Z,41.80
2019-02-25T10:35:22.251Z,40.20
2019-02-25T10:36:22.487Z,41.90
2019-02-25T10:37:22.711Z,42.70
2019-02-25T10:38:22.987Z,43.10
2019-02-25T10:39:23.225Z,40.20
2019-02-25T10:40:24.533Z,45.50
2019-02-25T10:41:25.526Z,39.90
2019-02-25T10:42:23.963Z,43.50
2019-02-25T10:43:25.675Z,46.00
2019-02-25T10:44:24.508Z,44.40
2019-02-25T10:45:24.749Z,45.80
2019-02-25T10:46:25.032Z,42.40
2019-02-25T10:47:25.276Z,41.90
2019-02-25T10:48:25.875Z,44.30
2019-02-25T10:49:26.673Z,43.00
2019-02-25T10:50:26.036Z,40.60
2019-02-25T10:51:26.326Z,49.40
2019-02-25T10:52:26.595Z,43.00
2019-02-25T10:53:26.829Z,40.10
2019-02-25T10:54:27.083Z,39.90
2019-02-25T10:55:27.315Z,41.00
2019-02-25T10:56:27.575Z,51.00
2019-02-25T10:57:29.172Z,40.50
2019-02-25T10:58:29.116Z,43.50
2019-02-25T10:59:29.841Z,38.70
2019-02-25T11:00:28.726Z,41.00
2019-02-25T11:01:28.855Z,37.00
2019-02-25T11:02:29.097Z,37.40
2019-02-25T11:03:29.373Z,41.60
2019-02-25T11:04:29.647Z,46.40
2019-02-25T11:05:30.549Z,40.50
2019-02-25T11:06:32.075Z,40.70
2019-02-25T11:07:30.831Z,41.50
2019-02-25T11:08:30.703Z,37.90
2019-02-25T11:09:30.898Z,41.30
2019-02-25T11:10:31.138Z,31.00
2019-02-25T11:11:31.406Z,35.00
2019-02-25T11:12:32.077Z,37.30
2019-02-25T11:13:33.945Z,37.60
2019-02-25T11:14:33.346Z,38.30
2019-02-25T11:15:32.403Z,35.10
2019-02-25T11:16:32.716Z,37.00
2019-02-25T11:17:32.891Z,35.60
2019-02-25T11:18:33.165Z,40.70
2019-02-25T11:19:33.405Z,35.60
2019-02-25T11:20:35.099Z,38.00
2019-02-25T11:21:35.256Z,36.30
2019-02-25T11:22:34.159Z,36.10
2019-02-25T11:23:34.422Z,35.40
2019-02-25T11:24:34.727Z,38.10
2019-02-25T11:25:34.898Z,38.60
2019-02-25T11:26:35.314Z,38.10
2019-02-25T11:27:37.398Z,36.80
2019-02-25T11:28:36.609Z,38.90
2019-02-25T11:29:37.864Z,33.20
2019-02-25T11:30:36.159Z,37.80
2019-02-25T11:31:36.460Z,37.70
2019-02-25T11:32:36.727Z,39.30
2019-02-25T11:33:37.064Z,35.30
2019-02-25T11:34:37.580Z,34.30
2019-02-25T11:35:38.927Z,38.30
2019-02-25T11:36:37.743Z,35.00
2019-02-25T11:37:37.988Z,37.50
2019-02-25T11:38:38.254Z,42.30
2019-02-25T11:39:38.499Z,37.30
2019-02-25T11:40:38.735Z,38.70
2019-02-25T11:41:40.878Z,40.80
2019-02-25T11:42:39.235Z,37.70
2019-02-25T11:43:39.508Z,37.80
2019-02-25T11:44:40.008Z,35.30
2019-02-25T11:45:40.012Z,38.70
2019-02-25T11:46:40.244Z,39.50
2019-02-25T11:47:40.526Z,40.90
2019-02-25T11:48:40.806Z,35.80
2019-02-25T11:49:41.139Z,38.70
2019-02-25T11:50:41.284Z,39.90
2019-02-25T11:51:41.529Z,40.00
2019-02-25T11:52:41.832Z,37.10
2019-02-25T11:53:42.085Z,47.40
2019-02-25T11:54:42.343Z,38.20
2019-02-25T11:55:42.587Z,34.50
2019-02-25T11:56:42.859Z,36.40
2019-02-25T11:57:43.133Z,34.50
2019-02-25T11:58:43.349Z,37.70
2019-02-25T11:59:43.623Z,37.60
2019-02-25T12:00:43.861Z,33.30
2019-02-25T12:01:44.120Z,40.60
2019-02-25T12:02:44.377Z,38.40
2019-02-25T12:03:44.609Z,38.40
2019-02-25T12:04:44.871Z,37.10
2019-02-25T12:05:45.187Z,37.00
2019-02-25T12:06:45.408Z,39.00
2019-02-25T12:07:45.659Z,41.10
2019-02-25T12:08:45.900Z,36.70
2019-02-25T12:09:46.151Z,36.20
2019-02-25T12:10:46.402Z,36.40
2019-02-25T12:11:46.669Z,35.30
2019-02-25T12:12:46.957Z,37.00
2019-02-25T12:13:47.205Z,35.90
2019-02-25T12:14:47.514Z,38.90
2019-02-25T12:15:47.680Z,35.90
2019-02-25T12:16:47.933Z,37.90
2019-02-25T12:17:48.221Z,33.10
2019-02-25T12:18:48.443Z,38.70
2019-02-25T12:19:48.711Z,38.80
2019-02-25T12:20:48.931Z,33.90
2019-02-25T12:21:49.199Z,35.10
2019-02-25T12:22:49.639Z,35.20
2019-02-25T12:23:49.709Z,36.90
2019-02-25T12:24:49.984Z,31.90
2019-02-25T12:25:50.234Z,36.20
2019-02-25T12:26:50.473Z,34.40
2019-02-25T12:27:50.749Z,31.70
2019-02-25T12:28:50.985Z,36.50
2019-02-25T12:29:51.256Z,34.70
2019-02-25T12:30:51.538Z,33.60
2019-02-25T12:31:51.723Z,37.10
2019-02-25T12:32:52.006Z,33.90
2019-02-25T12:33:52.243Z,36.30
2019-02-25T12:34:52.509Z,40.00
2019-02-25T12:35:52.749Z,32.60
2019-02-25T12:36:52.983Z,35.70
2019-02-25T12:37:53.280Z,34.90
2019-02-25T12:38:53.588Z,33.40
2019-02-25T12:39:53.774Z,37.20
2019-02-25T12:40:54.010Z,38.20
2019-02-25T12:41:54.272Z,35.30
2019-02-25T12:42:54.536Z,38.30
2019-02-25T12:43:54.758Z,36.60
2019-02-25T12:44:55.025Z,36.00
2019-02-25T12:45:55.282Z,35.00
2019-02-25T12:46:55.567Z,35.40
2019-02-25T12:47:55.807Z,36.10
2019-02-25T12:48:56.035Z,37.60
2019-02-25T12:49:56.296Z,40.90
2019-02-25T12:50:56.561Z,33.10
2019-02-25T12:51:56.813Z,34.80
2019-02-25T12:52:57.103Z,34.60
2019-02-25T12:53:57.322Z,38.50
2019-02-25T12:54:57.596Z,33.40
2019-02-25T12:55:57.939Z,36.70